sensor_id;sensor_type;location;lat;lon;timestamp;P1;durP1;ratioP1;P2;durP2;ratioP2
19507;SDS011;40157;42.566;27.526;2023-04-24T00:01:46;8.33;;;4.47;;
19507;SDS011;40157;42.566;27.526;2023-04-24T00:03:46;8.37;;;3.87;;
19507;SDS011;40157;42.566;27.526;2023-04-24T00:05:46;11.40;;;4.13;;
19507;SDS011;40157;42.566;27.526;2023-04-24T00:07:47;12.87;;;4.10;;
19507;SDS011;40157;42.566;27.526;2023-04-24T00:09:48;11.23;;;5.13;;
19507;SDS011;40157;42.566;27.526;2023-04-24T00:11:48;11.60;;;6.83;;
19507;SDS011;40157;42.566;27.526;2023-04-24T00:13:49;15.37;;;5.10;;
19507;SDS011;40157;42.566;27.526;2023-04-24T00:15:49;12.37;;;6.20;;
19507;SDS011;40157;42.566;27.526;2023-04-24T00:17:50;23.60;;;8.80;;
19507;SDS011;40157;42.566;27.526;2023-04-24T00:19:50;23.57;;;9.97;;
19507;SDS011;40157;42.566;27.526;2023-04-24T00:21:51;32.30;;;10.23;;
19507;SDS011;40157;42.566;27.526;2023-04-24T00:23:51;23.50;;;9.57;;
19507;SDS011;40157;42.566;27.526;2023-04-24T00:25:52;21.80;;;9.27;;
19507;SDS011;40157;42.566;27.526;2023-04-24T00:27:53;23.77;;;8.27;;
19507;SDS011;40157;42.566;27.526;2023-04-24T00:29:53;15.70;;;7.20;;
19507;SDS011;40157;42.566;27.526;2023-04-24T00:31:54;14.43;;;7.00;;
19507;SDS011;40157;42.566;27.526;2023-04-24T00:33:54;19.07;;;7.13;;
19507;SDS011;40157;42.566;27.526;2023-04-24T00:35:55;17.63;;;6.43;;
19507;SDS011;40157;42.566;27.526;2023-04-24T00:37:55;13.57;;;5.57;;
19507;SDS011;40157;42.566;27.526;2023-04-24T00:39:56;9.97;;;5.83;;
19507;SDS011;40157;42.566;27.526;2023-04-24T00:41:56;17.47;;;5.63;;
19507;SDS011;40157;42.566;27.526;2023-04-24T00:43:57;11.80;;;6.33;;
19507;SDS011;40157;42.566;27.526;2023-04-24T00:45:58;15.83;;;6.97;;
19507;SDS011;40157;42.566;27.526;2023-04-24T00:47:59;12.10;;;6.90;;
19507;SDS011;40157;42.566;27.526;2023-04-24T00:50:03;18.10;;;6.63;;
19507;SDS011;40157;42.566;27.526;2023-04-24T00:52:06;12.70;;;6.93;;
19507;SDS011;40157;42.566;27.526;2023-04-24T00:54:08;17.13;;;7.73;;
19507;SDS011;40157;42.566;27.526;2023-04-24T00:56:09;15.97;;;8.20;;
19507;SDS011;40157;42.566;27.526;2023-04-24T00:58:10;21.40;;;8.43;;
19507;SDS011;40157;42.566;27.526;2023-04-24T01:00:11;15.90;;;6.77;;
19507;SDS011;40157;42.566;27.526;2023-04-24T01:02:12;11.23;;;5.17;;
19507;SDS011;40157;42.566;27.526;2023-04-24T01:04:12;41.30;;;22.13;;
19507;SDS011;40157;42.566;27.526;2023-04-24T01:06:14;58.00;;;36.37;;
19507;SDS011;40157;42.566;27.526;2023-04-24T01:08:15;57.43;;;35.47;;
19507;SDS011;40157;42.566;27.526;2023-04-24T01:10:16;30.13;;;16.80;;
19507;SDS011;40157;42.566;27.526;2023-04-24T01:12:18;26.63;;;14.57;;
19507;SDS011;40157;42.566;27.526;2023-04-24T01:14:19;31.97;;;20.07;;
19507;SDS011;40157;42.566;27.526;2023-04-24T01:16:20;38.27;;;22.43;;
19507;SDS011;40157;42.566;27.526;2023-04-24T01:18:20;43.10;;;21.63;;
19507;SDS011;40157;42.566;27.526;2023-04-24T01:20:21;28.00;;;15.23;;
19507;SDS011;40157;42.566;27.526;2023-04-24T01:22:24;26.93;;;14.30;;
19507;SDS011;40157;42.566;27.526;2023-04-24T01:24:25;24.63;;;13.77;;
19507;SDS011;40157;42.566;27.526;2023-04-24T01:26:25;26.87;;;13.87;;
19507;SDS011;40157;42.566;27.526;2023-04-24T01:28:25;32.60;;;15.07;;
19507;SDS011;40157;42.566;27.526;2023-04-24T01:30:26;31.97;;;16.30;;
19507;SDS011;40157;42.566;27.526;2023-04-24T01:32:27;24.23;;;14.47;;
19507;SDS011;40157;42.566;27.526;2023-04-24T01:34:28;22.83;;;11.70;;
19507;SDS011;40157;42.566;27.526;2023-04-24T01:36:28;18.43;;;10.30;;
19507;SDS011;40157;42.566;27.526;2023-04-24T01:38:31;19.20;;;9.63;;
19507;SDS011;40157;42.566;27.526;2023-04-24T01:40:32;19.10;;;9.00;;
19507;SDS011;40157;42.566;27.526;2023-04-24T01:42:33;15.83;;;8.57;;
19507;SDS011;40157;42.566;27.526;2023-04-24T01:44:34;18.90;;;8.23;;
19507;SDS011;40157;42.566;27.526;2023-04-24T01:46:35;18.80;;;8.83;;
19507;SDS011;40157;42.566;27.526;2023-04-24T01:48:35;17.83;;;8.77;;
19507;SDS011;40157;42.566;27.526;2023-04-24T01:50:36;15.97;;;8.63;;
19507;SDS011;40157;42.566;27.526;2023-04-24T01:52:36;23.53;;;9.43;;
19507;SDS011;40157;42.566;27.526;2023-04-24T01:54:37;19.23;;;8.10;;
19507;SDS011;40157;42.566;27.526;2023-04-24T01:56:39;18.00;;;8.63;;
19507;SDS011;40157;42.566;27.526;2023-04-24T01:58:42;19.10;;;8.33;;
19507;SDS011;40157;42.566;27.526;2023-04-24T02:00:43;12.73;;;7.37;;
19507;SDS011;40157;42.566;27.526;2023-04-24T02:02:43;13.50;;;7.07;;
19507;SDS011;40157;42.566;27.526;2023-04-24T02:04:44;12.20;;;6.30;;
19507;SDS011;40157;42.566;27.526;2023-04-24T02:06:45;13.33;;;7.00;;
19507;SDS011;40157;42.566;27.526;2023-04-24T02:08:45;12.90;;;7.17;;
19507;SDS011;40157;42.566;27.526;2023-04-24T02:10:46;16.80;;;8.73;;
19507;SDS011;40157;42.566;27.526;2023-04-24T02:12:46;21.80;;;10.23;;
19507;SDS011;40157;42.566;27.526;2023-04-24T02:14:47;21.97;;;12.13;;
19507;SDS011;40157;42.566;27.526;2023-04-24T02:16:47;37.47;;;18.70;;
19507;SDS011;40157;42.566;27.526;2023-04-24T02:18:48;75.30;;;42.47;;
19507;SDS011;40157;42.566;27.526;2023-04-24T02:20:48;62.43;;;35.67;;
19507;SDS011;40157;42.566;27.526;2023-04-24T02:22:49;46.60;;;25.70;;
19507;SDS011;40157;42.566;27.526;2023-04-24T02:24:49;45.53;;;21.90;;
19507;SDS011;40157;42.566;27.526;2023-04-24T02:26:49;29.47;;;16.50;;
19507;SDS011;40157;42.566;27.526;2023-04-24T02:28:50;32.10;;;16.70;;
19507;SDS011;40157;42.566;27.526;2023-04-24T02:30:50;36.13;;;18.60;;
19507;SDS011;40157;42.566;27.526;2023-04-24T02:32:51;31.27;;;17.90;;
19507;SDS011;40157;42.566;27.526;2023-04-24T02:34:51;40.40;;;19.77;;
19507;SDS011;40157;42.566;27.526;2023-04-24T02:36:52;38.50;;;19.50;;
19507;SDS011;40157;42.566;27.526;2023-04-24T02:38:53;32.87;;;18.30;;
19507;SDS011;40157;42.566;27.526;2023-04-24T02:40:54;33.07;;;17.83;;
19507;SDS011;40157;42.566;27.526;2023-04-24T02:42:54;32.93;;;16.87;;
19507;SDS011;40157;42.566;27.526;2023-04-24T02:44:55;29.73;;;17.00;;
19507;SDS011;40157;42.566;27.526;2023-04-24T02:46:55;31.60;;;16.77;;
19507;SDS011;40157;42.566;27.526;2023-04-24T02:48:56;33.33;;;14.93;;
19507;SDS011;40157;42.566;27.526;2023-04-24T02:50:56;28.23;;;16.30;;
19507;SDS011;40157;42.566;27.526;2023-04-24T02:52:57;30.43;;;15.73;;
19507;SDS011;40157;42.566;27.526;2023-04-24T02:54:58;25.40;;;14.50;;
19507;SDS011;40157;42.566;27.526;2023-04-24T02:56:58;29.13;;;14.57;;
19507;SDS011;40157;42.566;27.526;2023-04-24T02:58:58;24.47;;;13.80;;
19507;SDS011;40157;42.566;27.526;2023-04-24T03:00:59;28.90;;;14.03;;
19507;SDS011;40157;42.566;27.526;2023-04-24T03:03:00;25.13;;;13.80;;
19507;SDS011;40157;42.566;27.526;2023-04-24T03:05:01;25.03;;;13.83;;
19507;SDS011;40157;42.566;27.526;2023-04-24T03:07:02;26.40;;;13.60;;
19507;SDS011;40157;42.566;27.526;2023-04-24T03:09:02;23.23;;;14.07;;
19507;SDS011;40157;42.566;27.526;2023-04-24T03:11:03;28.70;;;13.90;;
19507;SDS011;40157;42.566;27.526;2023-04-24T03:13:04;22.20;;;13.47;;
19507;SDS011;40157;42.566;27.526;2023-04-24T03:15:05;20.87;;;12.70;;
19507;SDS011;40157;42.566;27.526;2023-04-24T03:17:06;25.17;;;13.73;;
19507;SDS011;40157;42.566;27.526;2023-04-24T03:19:06;24.33;;;13.00;;
19507;SDS011;40157;42.566;27.526;2023-04-24T03:21:07;24.63;;;13.43;;
19507;SDS011;40157;42.566;27.526;2023-04-24T03:23:07;24.43;;;14.23;;
19507;SDS011;40157;42.566;27.526;2023-04-24T03:25:08;24.57;;;13.30;;
19507;SDS011;40157;42.566;27.526;2023-04-24T03:27:09;20.57;;;12.23;;
19507;SDS011;40157;42.566;27.526;2023-04-24T03:29:09;27.93;;;13.30;;
19507;SDS011;40157;42.566;27.526;2023-04-24T03:31:10;20.97;;;12.63;;
19507;SDS011;40157;42.566;27.526;2023-04-24T03:33:10;28.67;;;12.50;;
19507;SDS011;40157;42.566;27.526;2023-04-24T03:35:11;22.17;;;11.50;;
19507;SDS011;40157;42.566;27.526;2023-04-24T03:37:11;17.70;;;10.03;;
19507;SDS011;40157;42.566;27.526;2023-04-24T03:39:12;25.30;;;11.80;;
19507;SDS011;40157;42.566;27.526;2023-04-24T03:41:12;19.57;;;12.07;;
19507;SDS011;40157;42.566;27.526;2023-04-24T03:43:13;23.17;;;12.27;;
19507;SDS011;40157;42.566;27.526;2023-04-24T03:45:13;20.27;;;11.57;;
19507;SDS011;40157;42.566;27.526;2023-04-24T03:47:13;19.20;;;10.60;;
19507;SDS011;40157;42.566;27.526;2023-04-24T03:49:14;27.10;;;11.63;;
19507;SDS011;40157;42.566;27.526;2023-04-24T03:51:14;22.17;;;11.43;;
19507;SDS011;40157;42.566;27.526;2023-04-24T03:53:15;26.73;;;12.57;;
19507;SDS011;40157;42.566;27.526;2023-04-24T03:55:15;26.70;;;13.50;;
19507;SDS011;40157;42.566;27.526;2023-04-24T03:57:16;20.37;;;12.73;;
19507;SDS011;40157;42.566;27.526;2023-04-24T03:59:16;22.13;;;10.77;;
19507;SDS011;40157;42.566;27.526;2023-04-24T04:01:16;22.73;;;10.77;;
19507;SDS011;40157;42.566;27.526;2023-04-24T04:03:18;20.80;;;10.07;;
19507;SDS011;40157;42.566;27.526;2023-04-24T04:05:19;28.50;;;9.67;;
19507;SDS011;40157;42.566;27.526;2023-04-24T04:07:19;16.17;;;8.83;;
19507;SDS011;40157;42.566;27.526;2023-04-24T04:09:20;17.47;;;8.37;;
19507;SDS011;40157;42.566;27.526;2023-04-24T04:11:20;12.67;;;7.13;;
19507;SDS011;40157;42.566;27.526;2023-04-24T04:13:21;13.37;;;6.50;;
19507;SDS011;40157;42.566;27.526;2023-04-24T04:15:21;16.80;;;6.27;;
19507;SDS011;40157;42.566;27.526;2023-04-24T04:17:22;17.90;;;6.43;;
19507;SDS011;40157;42.566;27.526;2023-04-24T04:19:22;13.30;;;6.20;;
19507;SDS011;40157;42.566;27.526;2023-04-24T04:21:22;9.97;;;5.53;;
19507;SDS011;40157;42.566;27.526;2023-04-24T04:23:23;12.13;;;5.93;;
19507;SDS011;40157;42.566;27.526;2023-04-24T04:25:23;17.67;;;6.53;;
19507;SDS011;40157;42.566;27.526;2023-04-24T04:27:25;10.37;;;6.00;;
19507;SDS011;40157;42.566;27.526;2023-04-24T04:29:26;15.07;;;7.37;;
19507;SDS011;40157;42.566;27.526;2023-04-24T04:31:27;19.63;;;7.27;;
19507;SDS011;40157;42.566;27.526;2023-04-24T04:33:27;16.43;;;7.20;;
19507;SDS011;40157;42.566;27.526;2023-04-24T04:35:27;17.37;;;7.07;;
19507;SDS011;40157;42.566;27.526;2023-04-24T04:37:31;14.47;;;6.77;;
19507;SDS011;40157;42.566;27.526;2023-04-24T04:39:33;15.80;;;6.83;;
19507;SDS011;40157;42.566;27.526;2023-04-24T04:41:33;16.47;;;6.23;;
19507;SDS011;40157;42.566;27.526;2023-04-24T04:43:37;9.53;;;5.40;;
19507;SDS011;40157;42.566;27.526;2023-04-24T04:45:40;11.20;;;6.03;;
19507;SDS011;40157;42.566;27.526;2023-04-24T04:47:42;18.70;;;6.23;;
19507;SDS011;40157;42.566;27.526;2023-04-24T04:49:43;13.67;;;5.83;;
19507;SDS011;40157;42.566;27.526;2023-04-24T04:51:43;10.57;;;6.07;;
19507;SDS011;40157;42.566;27.526;2023-04-24T04:53:44;11.27;;;5.87;;
19507;SDS011;40157;42.566;27.526;2023-04-24T04:55:45;14.33;;;6.27;;
19507;SDS011;40157;42.566;27.526;2023-04-24T04:57:47;21.50;;;5.83;;
19507;SDS011;40157;42.566;27.526;2023-04-24T04:59:47;11.30;;;5.80;;
19507;SDS011;40157;42.566;27.526;2023-04-24T05:01:48;9.70;;;5.63;;
19507;SDS011;40157;42.566;27.526;2023-04-24T05:03:48;12.70;;;6.33;;
19507;SDS011;40157;42.566;27.526;2023-04-24T05:05:48;12.93;;;6.47;;
19507;SDS011;40157;42.566;27.526;2023-04-24T05:07:49;17.73;;;6.07;;
19507;SDS011;40157;42.566;27.526;2023-04-24T05:09:49;15.70;;;6.20;;
19507;SDS011;40157;42.566;27.526;2023-04-24T05:11:51;12.50;;;6.70;;
19507;SDS011;40157;42.566;27.526;2023-04-24T05:13:51;19.90;;;8.47;;
19507;SDS011;40157;42.566;27.526;2023-04-24T05:15:52;12.50;;;8.27;;
19507;SDS011;40157;42.566;27.526;2023-04-24T05:17:52;14.33;;;6.90;;
19507;SDS011;40157;42.566;27.526;2023-04-24T05:19:53;13.90;;;6.83;;
19507;SDS011;40157;42.566;27.526;2023-04-24T05:21:53;14.57;;;6.57;;
19507;SDS011;40157;42.566;27.526;2023-04-24T05:23:54;9.80;;;5.90;;
19507;SDS011;40157;42.566;27.526;2023-04-24T05:25:54;19.03;;;7.60;;
19507;SDS011;40157;42.566;27.526;2023-04-24T05:27:55;14.87;;;7.97;;
19507;SDS011;40157;42.566;27.526;2023-04-24T05:29:55;14.83;;;8.00;;
19507;SDS011;40157;42.566;27.526;2023-04-24T05:31:56;22.87;;;8.17;;
19507;SDS011;40157;42.566;27.526;2023-04-24T05:33:57;22.47;;;9.03;;
19507;SDS011;40157;42.566;27.526;2023-04-24T05:35:58;31.13;;;12.97;;
19507;SDS011;40157;42.566;27.526;2023-04-24T05:37:58;20.97;;;11.80;;
19507;SDS011;40157;42.566;27.526;2023-04-24T05:39:59;28.10;;;10.20;;
19507;SDS011;40157;42.566;27.526;2023-04-24T05:41:59;16.10;;;8.20;;
19507;SDS011;40157;42.566;27.526;2023-04-24T05:44:01;16.20;;;8.30;;
19507;SDS011;40157;42.566;27.526;2023-04-24T05:46:01;16.57;;;7.17;;
19507;SDS011;40157;42.566;27.526;2023-04-24T05:48:02;14.77;;;7.03;;
19507;SDS011;40157;42.566;27.526;2023-04-24T05:50:03;15.73;;;6.53;;
19507;SDS011;40157;42.566;27.526;2023-04-24T05:52:04;14.00;;;6.23;;
19507;SDS011;40157;42.566;27.526;2023-04-24T05:54:06;15.87;;;6.33;;
19507;SDS011;40157;42.566;27.526;2023-04-24T05:56:06;18.27;;;6.33;;
19507;SDS011;40157;42.566;27.526;2023-04-24T05:58:07;35.33;;;18.03;;
19507;SDS011;40157;42.566;27.526;2023-04-24T06:00:07;53.93;;;24.17;;
19507;SDS011;40157;42.566;27.526;2023-04-24T06:02:08;41.17;;;21.20;;
19507;SDS011;40157;42.566;27.526;2023-04-24T06:04:09;28.87;;;14.90;;
19507;SDS011;40157;42.566;27.526;2023-04-24T06:06:09;29.67;;;12.77;;
19507;SDS011;40157;42.566;27.526;2023-04-24T06:08:10;23.13;;;10.63;;
19507;SDS011;40157;42.566;27.526;2023-04-24T06:10:11;16.47;;;9.17;;
19507;SDS011;40157;42.566;27.526;2023-04-24T06:12:11;18.83;;;8.90;;
19507;SDS011;40157;42.566;27.526;2023-04-24T06:14:12;32.60;;;10.03;;
19507;SDS011;40157;42.566;27.526;2023-04-24T06:16:12;23.07;;;7.93;;
19507;SDS011;40157;42.566;27.526;2023-04-24T06:18:13;15.30;;;7.50;;
19507;SDS011;40157;42.566;27.526;2023-04-24T06:20:13;16.30;;;7.60;;
19507;SDS011;40157;42.566;27.526;2023-04-24T06:22:14;20.43;;;9.50;;
19507;SDS011;40157;42.566;27.526;2023-04-24T06:24:15;34.30;;;15.03;;
19507;SDS011;40157;42.566;27.526;2023-04-24T06:26:16;25.40;;;10.40;;
19507;SDS011;40157;42.566;27.526;2023-04-24T06:28:17;18.97;;;9.83;;
19507;SDS011;40157;42.566;27.526;2023-04-24T06:30:17;23.20;;;12.83;;
19507;SDS011;40157;42.566;27.526;2023-04-24T06:32:18;25.87;;;11.47;;
19507;SDS011;40157;42.566;27.526;2023-04-24T06:34:18;19.17;;;9.27;;
19507;SDS011;40157;42.566;27.526;2023-04-24T06:36:19;32.00;;;13.60;;
19507;SDS011;40157;42.566;27.526;2023-04-24T06:38:19;24.33;;;10.80;;
19507;SDS011;40157;42.566;27.526;2023-04-24T06:40:20;19.27;;;9.77;;
19507;SDS011;40157;42.566;27.526;2023-04-24T06:42:20;15.00;;;7.70;;
19507;SDS011;40157;42.566;27.526;2023-04-24T06:44:21;12.60;;;6.83;;
19507;SDS011;40157;42.566;27.526;2023-04-24T06:46:22;13.00;;;6.00;;
19507;SDS011;40157;42.566;27.526;2023-04-24T06:48:25;12.03;;;6.30;;
19507;SDS011;40157;42.566;27.526;2023-04-24T06:50:26;13.60;;;6.43;;
19507;SDS011;40157;42.566;27.526;2023-04-24T06:52:26;13.33;;;6.53;;
19507;SDS011;40157;42.566;27.526;2023-04-24T06:54:27;12.70;;;6.40;;
19507;SDS011;40157;42.566;27.526;2023-04-24T06:56:28;15.13;;;7.63;;
19507;SDS011;40157;42.566;27.526;2023-04-24T06:58:30;13.93;;;6.90;;
19507;SDS011;40157;42.566;27.526;2023-04-24T07:00:30;14.37;;;6.83;;
19507;SDS011;40157;42.566;27.526;2023-04-24T07:02:31;12.50;;;6.70;;
19507;SDS011;40157;42.566;27.526;2023-04-24T07:04:31;14.70;;;6.43;;
19507;SDS011;40157;42.566;27.526;2023-04-24T07:06:32;17.53;;;7.33;;
19507;SDS011;40157;42.566;27.526;2023-04-24T07:08:33;15.03;;;7.23;;
19507;SDS011;40157;42.566;27.526;2023-04-24T07:10:34;14.33;;;6.77;;
19507;SDS011;40157;42.566;27.526;2023-04-24T07:12:34;13.50;;;6.77;;
19507;SDS011;40157;42.566;27.526;2023-04-24T07:14:36;18.60;;;7.10;;
19507;SDS011;40157;42.566;27.526;2023-04-24T07:16:36;17.23;;;5.90;;
19507;SDS011;40157;42.566;27.526;2023-04-24T07:18:37;9.87;;;5.43;;
19507;SDS011;40157;42.566;27.526;2023-04-24T07:20:39;11.73;;;5.70;;
19507;SDS011;40157;42.566;27.526;2023-04-24T07:22:40;9.53;;;5.53;;
19507;SDS011;40157;42.566;27.526;2023-04-24T07:24:41;16.73;;;6.20;;
19507;SDS011;40157;42.566;27.526;2023-04-24T07:26:43;11.77;;;6.30;;
19507;SDS011;40157;42.566;27.526;2023-04-24T07:28:43;14.20;;;6.27;;
19507;SDS011;40157;42.566;27.526;2023-04-24T07:30:44;15.57;;;6.00;;
19507;SDS011;40157;42.566;27.526;2023-04-24T07:32:44;13.53;;;6.03;;
19507;SDS011;40157;42.566;27.526;2023-04-24T07:34:44;13.23;;;5.83;;
19507;SDS011;40157;42.566;27.526;2023-04-24T07:36:45;11.57;;;5.83;;
19507;SDS011;40157;42.566;27.526;2023-04-24T07:38:46;12.07;;;5.77;;
19507;SDS011;40157;42.566;27.526;2023-04-24T07:40:46;11.47;;;5.47;;
19507;SDS011;40157;42.566;27.526;2023-04-24T07:42:47;10.83;;;5.90;;
19507;SDS011;40157;42.566;27.526;2023-04-24T07:44:48;12.17;;;5.77;;
19507;SDS011;40157;42.566;27.526;2023-04-24T07:46:49;10.33;;;5.57;;
19507;SDS011;40157;42.566;27.526;2023-04-24T07:48:49;10.70;;;5.37;;
19507;SDS011;40157;42.566;27.526;2023-04-24T07:50:50;12.00;;;5.10;;
19507;SDS011;40157;42.566;27.526;2023-04-24T07:52:51;13.03;;;4.83;;
19507;SDS011;40157;42.566;27.526;2023-04-24T07:54:51;11.07;;;4.47;;
19507;SDS011;40157;42.566;27.526;2023-04-24T07:56:58;12.50;;;4.97;;
19507;SDS011;40157;42.566;27.526;2023-04-24T07:58:58;10.03;;;4.40;;
19507;SDS011;40157;42.566;27.526;2023-04-24T08:00:59;12.70;;;4.80;;
19507;SDS011;40157;42.566;27.526;2023-04-24T08:03:00;12.00;;;4.13;;
19507;SDS011;40157;42.566;27.526;2023-04-24T08:05:01;13.63;;;4.60;;
19507;SDS011;40157;42.566;27.526;2023-04-24T08:07:03;8.33;;;3.93;;
19507;SDS011;40157;42.566;27.526;2023-04-24T08:09:03;10.53;;;4.50;;
19507;SDS011;40157;42.566;27.526;2023-04-24T08:11:04;12.37;;;4.30;;
19507;SDS011;40157;42.566;27.526;2023-04-24T08:13:05;11.60;;;4.37;;
19507;SDS011;40157;42.566;27.526;2023-04-24T08:15:05;14.03;;;4.50;;
19507;SDS011;40157;42.566;27.526;2023-04-24T08:17:06;8.37;;;3.57;;
19507;SDS011;40157;42.566;27.526;2023-04-24T08:19:07;10.13;;;4.30;;
19507;SDS011;40157;42.566;27.526;2023-04-24T08:21:07;9.90;;;4.40;;
19507;SDS011;40157;42.566;27.526;2023-04-24T08:23:08;7.63;;;3.57;;
19507;SDS011;40157;42.566;27.526;2023-04-24T08:25:09;6.40;;;4.03;;
19507;SDS011;40157;42.566;27.526;2023-04-24T08:27:10;11.20;;;3.90;;
19507;SDS011;40157;42.566;27.526;2023-04-24T08:29:11;13.77;;;3.77;;
19507;SDS011;40157;42.566;27.526;2023-04-24T08:31:11;17.27;;;4.27;;
19507;SDS011;40157;42.566;27.526;2023-04-24T08:33:12;10.40;;;3.97;;
19507;SDS011;40157;42.566;27.526;2023-04-24T08:35:13;10.77;;;4.57;;
19507;SDS011;40157;42.566;27.526;2023-04-24T08:37:14;7.13;;;3.13;;
19507;SDS011;40157;42.566;27.526;2023-04-24T08:39:14;11.67;;;4.10;;
19507;SDS011;40157;42.566;27.526;2023-04-24T08:41:15;9.30;;;3.90;;
19507;SDS011;40157;42.566;27.526;2023-04-24T08:43:20;14.27;;;4.73;;
19507;SDS011;40157;42.566;27.526;2023-04-24T08:45:22;6.00;;;3.80;;
19507;SDS011;40157;42.566;27.526;2023-04-24T08:47:23;8.50;;;3.83;;
19507;SDS011;40157;42.566;27.526;2023-04-24T08:49:25;9.93;;;4.10;;
19507;SDS011;40157;42.566;27.526;2023-04-24T08:51:28;7.17;;;3.70;;
19507;SDS011;40157;42.566;27.526;2023-04-24T08:53:30;12.97;;;6.43;;
19507;SDS011;40157;42.566;27.526;2023-04-24T08:55:33;12.83;;;4.30;;
19507;SDS011;40157;42.566;27.526;2023-04-24T08:57:34;14.03;;;6.53;;
19507;SDS011;40157;42.566;27.526;2023-04-24T08:59:35;9.17;;;3.87;;
19507;SDS011;40157;42.566;27.526;2023-04-24T09:01:38;10.43;;;3.40;;
19507;SDS011;40157;42.566;27.526;2023-04-24T09:03:39;9.43;;;3.53;;
19507;SDS011;40157;42.566;27.526;2023-04-24T09:05:41;10.83;;;3.10;;
19507;SDS011;40157;42.566;27.526;2023-04-24T09:07:47;11.07;;;4.50;;
19507;SDS011;40157;42.566;27.526;2023-04-24T09:09:53;10.03;;;3.80;;
19507;SDS011;40157;42.566;27.526;2023-04-24T09:11:54;7.53;;;3.83;;
19507;SDS011;40157;42.566;27.526;2023-04-24T09:13:55;9.07;;;3.83;;
19507;SDS011;40157;42.566;27.526;2023-04-24T09:15:56;6.27;;;3.40;;
19507;SDS011;40157;42.566;27.526;2023-04-24T09:17:57;8.20;;;3.67;;
19507;SDS011;40157;42.566;27.526;2023-04-24T09:19:58;10.20;;;4.00;;
19507;SDS011;40157;42.566;27.526;2023-04-24T09:21:58;14.67;;;3.53;;
19507;SDS011;40157;42.566;27.526;2023-04-24T09:23:59;10.57;;;3.83;;
19507;SDS011;40157;42.566;27.526;2023-04-24T09:26:02;10.27;;;4.00;;
19507;SDS011;40157;42.566;27.526;2023-04-24T09:28:06;11.53;;;4.17;;
19507;SDS011;40157;42.566;27.526;2023-04-24T09:30:07;8.23;;;3.60;;
19507;SDS011;40157;42.566;27.526;2023-04-24T09:32:17;9.60;;;4.00;;
19507;SDS011;40157;42.566;27.526;2023-04-24T09:34:23;11.37;;;3.60;;
19507;SDS011;40157;42.566;27.526;2023-04-24T09:36:28;14.53;;;4.03;;
19507;SDS011;40157;42.566;27.526;2023-04-24T09:38:37;12.13;;;4.10;;
19507;SDS011;40157;42.566;27.526;2023-04-24T09:40:38;12.77;;;4.30;;
19507;SDS011;40157;42.566;27.526;2023-04-24T09:42:42;11.87;;;3.50;;
19507;SDS011;40157;42.566;27.526;2023-04-24T09:44:45;14.10;;;4.43;;
19507;SDS011;40157;42.566;27.526;2023-04-24T09:46:55;13.30;;;3.37;;
19507;SDS011;40157;42.566;27.526;2023-04-24T09:48:57;8.33;;;3.80;;
19507;SDS011;40157;42.566;27.526;2023-04-24T09:50:57;12.57;;;4.83;;
19507;SDS011;40157;42.566;27.526;2023-04-24T09:52:59;10.90;;;4.10;;
19507;SDS011;40157;42.566;27.526;2023-04-24T09:55:02;8.17;;;3.33;;
19507;SDS011;40157;42.566;27.526;2023-04-24T09:57:11;9.80;;;4.10;;
19507;SDS011;40157;42.566;27.526;2023-04-24T09:59:12;10.73;;;4.23;;
19507;SDS011;40157;42.566;27.526;2023-04-24T10:01:14;10.82;;;3.35;;
19507;SDS011;40157;42.566;27.526;2023-04-24T10:03:14;11.33;;;4.23;;
19507;SDS011;40157;42.566;27.526;2023-04-24T10:05:14;12.43;;;3.58;;
19507;SDS011;40157;42.566;27.526;2023-04-24T10:07:15;7.87;;;3.27;;
19507;SDS011;40157;42.566;27.526;2023-04-24T10:09:16;12.40;;;3.50;;
19507;SDS011;40157;42.566;27.526;2023-04-24T10:11:18;13.87;;;3.80;;
19507;SDS011;40157;42.566;27.526;2023-04-24T10:13:18;11.77;;;3.50;;
19507;SDS011;40157;42.566;27.526;2023-04-24T10:15:19;8.80;;;3.00;;
19507;SDS011;40157;42.566;27.526;2023-04-24T10:17:21;8.40;;;3.50;;
19507;SDS011;40157;42.566;27.526;2023-04-24T10:19:25;17.25;;;3.67;;
19507;SDS011;40157;42.566;27.526;2023-04-24T10:21:26;6.25;;;3.20;;
19507;SDS011;40157;42.566;27.526;2023-04-24T10:23:27;16.80;;;3.67;;
19507;SDS011;40157;42.566;27.526;2023-04-24T10:25:31;8.43;;;3.20;;
19507;SDS011;40157;42.566;27.526;2023-04-24T10:27:32;8.05;;;3.38;;
19507;SDS011;40157;42.566;27.526;2023-04-24T10:29:34;13.05;;;3.53;;
19507;SDS011;40157;42.566;27.526;2023-04-24T10:31:36;23.33;;;4.18;;
19507;SDS011;40157;42.566;27.526;2023-04-24T10:33:38;19.35;;;4.25;;
19507;SDS011;40157;42.566;27.526;2023-04-24T10:35:42;9.65;;;2.85;;
19507;SDS011;40157;42.566;27.526;2023-04-24T10:37:46;7.93;;;3.10;;
19507;SDS011;40157;42.566;27.526;2023-04-24T10:39:50;10.75;;;3.28;;
19507;SDS011;40157;42.566;27.526;2023-04-24T10:41:54;12.23;;;3.60;;
19507;SDS011;40157;42.566;27.526;2023-04-24T10:44:04;6.65;;;3.28;;
19507;SDS011;40157;42.566;27.526;2023-04-24T10:46:06;14.65;;;3.67;;
19507;SDS011;40157;42.566;27.526;2023-04-24T10:48:07;8.65;;;3.72;;
19507;SDS011;40157;42.566;27.526;2023-04-24T10:50:13;9.30;;;3.08;;
19507;SDS011;40157;42.566;27.526;2023-04-24T10:52:13;10.23;;;3.03;;
19507;SDS011;40157;42.566;27.526;2023-04-24T10:54:34;8.70;;;3.57;;
19507;SDS011;40157;42.566;27.526;2023-04-24T10:56:34;9.37;;;3.30;;
19507;SDS011;40157;42.566;27.526;2023-04-24T10:58:41;10.93;;;3.53;;
19507;SDS011;40157;42.566;27.526;2023-04-24T11:00:56;10.37;;;3.57;;
19507;SDS011;40157;42.566;27.526;2023-04-24T11:02:58;12.45;;;3.58;;
19507;SDS011;40157;42.566;27.526;2023-04-24T11:04:58;10.90;;;3.10;;
19507;SDS011;40157;42.566;27.526;2023-04-24T11:07:03;9.70;;;2.90;;
19507;SDS011;40157;42.566;27.526;2023-04-24T11:09:05;11.40;;;3.53;;
19507;SDS011;40157;42.566;27.526;2023-04-24T11:11:13;10.85;;;4.00;;
19507;SDS011;40157;42.566;27.526;2023-04-24T11:13:15;7.93;;;3.50;;
19507;SDS011;40157;42.566;27.526;2023-04-24T11:15:16;13.15;;;3.45;;
19507;SDS011;40157;42.566;27.526;2023-04-24T11:19:28;21.77;;;3.67;;
19507;SDS011;40157;42.566;27.526;2023-04-24T11:21:39;12.13;;;3.67;;
19507;SDS011;40157;42.566;27.526;2023-04-24T11:23:44;12.30;;;3.80;;
19507;SDS011;40157;42.566;27.526;2023-04-24T11:25:45;12.00;;;4.17;;
19507;SDS011;40157;42.566;27.526;2023-04-24T11:28:14;43.58;;;4.88;;
19507;SDS011;40157;42.566;27.526;2023-04-24T11:30:19;15.40;;;3.35;;
19507;SDS011;40157;42.566;27.526;2023-04-24T11:34:52;13.13;;;2.95;;
19507;SDS011;40157;42.566;27.526;2023-04-24T11:36:54;10.95;;;3.00;;
19507;SDS011;40157;42.566;27.526;2023-04-24T11:38:56;9.60;;;3.15;;
19507;SDS011;40157;42.566;27.526;2023-04-24T11:40:57;6.30;;;2.88;;
19507;SDS011;40157;42.566;27.526;2023-04-24T11:43:00;16.02;;;3.08;;
19507;SDS011;40157;42.566;27.526;2023-04-24T11:45:01;10.48;;;3.08;;
19507;SDS011;40157;42.566;27.526;2023-04-24T11:47:02;10.40;;;3.03;;
19507;SDS011;40157;42.566;27.526;2023-04-24T11:49:07;8.82;;;3.00;;
19507;SDS011;40157;42.566;27.526;2023-04-24T11:51:07;10.35;;;3.00;;
19507;SDS011;40157;42.566;27.526;2023-04-24T11:53:08;7.50;;;3.60;;
19507;SDS011;40157;42.566;27.526;2023-04-24T11:57:15;7.40;;;3.65;;